Disclaimer

Please do not use the information listed here in-flight or in-navigation, as they are not provided to us by the airports but are provided by volunteers, so they might be outdated.

Search


Regions


Airport information page

Radio informations:
MENDERES TWR - 118.1 MHz
MENDERES RAMP - 121.7 MHz
MENDERES GND - 121.9 MHz
Automatic Terminal Information Service (ATIS) - 129.2 MHz
MENDERES APP - 119.5 MHz

Airport informations:
Latitude: 38° 17' 32.61" N
Longitude: 027° 09' 25.03" E
Elevation: 412 feet - 126 meters
Operating hours: N/A
Operating agency: Civil government, landing fees and diplomatic clearance may be required
Timezone: UTC+2(+3DT) - Dates notified by NOTAM
Fuel: Jet A1, without icing nhibitor.

100/130 MIL Spec, low lead, aviation gasoline (BLUE)

Runway information:
16R/34L - 10630 x 147 feet< - >3240 x 45 meters
16L/34R - 10630 x 147 feet< - >3240 x 45 meters

Recent METARs:
LTBJ 171950Z 35007KT 9999 SCT030 BKN100 10/08 Q1020 NOSIG RMK RWY16 33009KT
LTBJ 172020Z 35007KT 9999 SCT030 BKN100 11/08 Q1020 NOSIG RMK RWY16 33006KT
LTBJ 172050Z 01006KT 9999 -SHRA SCT030 BKN100 10/08 Q1020 NOSIG RMK RWY16 34006KT

Airport on the map: